Pea Ridge, Missouri
Current Conditions -  °F | °C
As of 10:35 PM on Saturday 20 Dec 2014 (Local Time) from KFYG Reporting Station
Overcast Overcast  
Wind Chill:   Ceiling: 2700
Heat Index:   Visibility: 10mi
Dew Point:   Wind: 5mph
Humidity: 81%   Direction: 140°SE
Pressure: 30.23"   Gusts: NA
Location:  38.2643°N, 91.1348°W
Report Text: KFYG 210435Z AUTO 14004KT 10SM OVC027 05/02 A3023 RMK AO2
Loading
Personal Weather Stations






























Interactive Weather Map New forecast layout! Learn more

10-Day Weather Forecast

Advertisements
Track Severe Weather on mobile